Time;durP1;ratioP1;P1;durP2;ratioP2;P2;SDS_P1;SDS_P2;PMS_P1;PMS_P2;Temp;Humidity;BMP_temperature;BMP_pressure;BME280_temperature;BME280_humidity;BME280_pressure;Samples;Min_cycle;Max_cycle;Signal;HPM_P1;HPM_P2
2024/04/14 00:01:20;;;;;;;12.13;3.15;;;;;;;18.47;45.95;102043.31;5335988;26;94760;-89
2024/04/14 00:03:45;;;;;;;13.23;3.00;;;;;;;18.46;46.10;102052.09;5302220;26;94959;-89
2024/04/14 00:06:11;;;;;;;16.63;3.28;;;;;;;18.43;46.37;102046.81;5301430;26;97515;-89
2024/04/14 00:08:36;;;;;;;12.82;3.65;;;;;;;18.41;46.25;102059.13;5332580;26;95802;-88
2024/04/14 00:11:01;;;;;;;13.05;3.05;;;;;;;18.38;46.44;102061.81;5289152;26;94803;-88
2024/04/14 00:13:27;;;;;;;15.10;3.60;;;;;;;18.36;46.62;102066.19;5308361;26;94906;-90
2024/04/14 00:16:03;;;;;;;14.52;3.45;;;;;;;18.32;46.65;102072.34;5294062;26;97416;-88
2024/04/14 00:18:28;;;;;;;18.55;3.42;;;;;;;18.30;46.67;102077.63;5332410;26;96083;-89
2024/04/14 00:20:54;;;;;;;12.07;3.08;;;;;;;18.28;46.98;102068.84;5307366;26;94741;-89
2024/04/14 00:23:19;;;;;;;10.70;2.92;;;;;;;18.27;46.97;102067.09;5355868;26;94927;-89
2024/04/14 00:25:45;;;;;;;13.18;3.95;;;;;;;18.25;47.08;102071.47;5312933;26;98530;-89
2024/04/14 00:28:10;;;;;;;13.95;3.75;;;;;;;18.22;47.09;102071.50;5336235;26;94796;-90
2024/04/14 00:30:36;;;;;;;16.75;3.20;;;;;;;18.18;47.19;102080.25;5321824;26;94733;-89
2024/04/14 00:33:01;;;;;;;12.32;2.90;;;;;;;18.10;47.25;102074.13;5308212;26;94844;-90
2024/04/14 00:35:27;;;;;;;14.15;3.95;;;;;;;18.05;47.54;102080.25;5336125;26;95851;-89
2024/04/14 00:37:52;;;;;;;15.07;3.72;;;;;;;18.04;47.56;102075.00;5335055;26;95756;-89
2024/04/14 00:40:19;;;;;;;14.45;3.35;;;;;;;18.03;47.75;102082.00;5321442;26;94717;-89
2024/04/14 00:42:44;;;;;;;13.60;3.15;;;;;;;17.98;47.60;102086.41;5318474;26;95002;-89
2024/04/14 00:45:10;;;;;;;15.00;3.17;;;;;;;17.94;47.90;102079.38;5324994;26;95615;-89
2024/04/14 00:47:36;;;;;;;17.15;4.25;;;;;;;17.93;48.13;102087.28;5291720;26;96520;-89
2024/04/14 00:50:02;;;;;;;12.32;3.17;;;;;;;17.91;48.00;102083.75;5326663;26;94764;-89
2024/04/14 00:52:27;;;;;;;16.15;3.95;;;;;;;17.89;48.35;102081.09;5307637;26;95094;-88
2024/04/14 00:54:53;;;;;;;12.15;3.60;;;;;;;17.87;48.20;102074.94;5272228;26;98477;-90
2024/04/14 00:57:19;;;;;;;15.63;3.58;;;;;;;17.85;48.48;102082.88;5291137;26;96586;-91
2024/04/14 00:59:44;;;;;;;13.27;3.00;;;;;;;17.85;48.24;102089.88;5332069;26;94769;-89
2024/04/14 01:02:10;;;;;;;12.85;3.38;;;;;;;17.83;48.31;102089.88;5338689;26;95065;-89
2024/04/14 01:04:35;;;;;;;11.00;2.85;;;;;;;17.80;48.14;102089.84;5308718;26;95557;-89
2024/04/14 01:07:01;;;;;;;11.25;2.78;;;;;;;17.76;48.28;102096.00;5337691;26;99325;-88
2024/04/14 01:09:26;;;;;;;11.50;2.42;;;;;;;17.73;48.35;102090.72;5309325;26;94748;-89
2024/04/14 01:11:51;;;;;;;10.88;2.45;;;;;;;17.69;48.10;102088.97;5308574;26;94919;-90
2024/04/14 01:14:17;;;;;;;12.23;2.78;;;;;;;17.63;48.30;102089.81;5288026;26;95620;-88
2024/04/14 01:16:43;;;;;;;10.60;2.40;;;;;;;17.60;47.92;102099.47;5308613;26;98604;-89
2024/04/14 01:19:08;;;;;;;13.38;3.38;;;;;;;17.57;48.27;102110.03;5332552;26;94682;-89
2024/04/14 01:21:33;;;;;;;8.23;2.40;;;;;;;17.54;48.17;102113.53;5303716;26;95002;-89
2024/04/14 01:23:59;;;;;;;10.38;3.38;;;;;;;17.50;48.60;102114.38;5332019;26;95875;-89
2024/04/14 01:26:25;;;;;;;9.88;2.08;;;;;;;17.47;48.26;102125.81;5302832;26;95551;-90
2024/04/14 01:28:50;;;;;;;9.07;2.47;;;;;;;17.45;48.25;102131.94;5332495;26;94807;-90
2024/04/14 01:31:16;;;;;;;9.48;1.98;;;;;;;17.42;48.43;102124.03;5308921;26;94949;-89
2024/04/14 01:33:42;;;;;;;11.00;2.50;;;;;;;17.37;48.29;102116.09;5337484;26;95498;-90
2024/04/14 01:36:07;;;;;;;10.15;2.90;;;;;;;17.32;48.37;102125.72;5279178;26;98695;-89
2024/04/14 01:38:33;;;;;;;11.98;2.08;;;;;;;17.29;48.51;102130.97;5337285;26;94820;-89
2024/04/14 01:41:01;;;;;;;9.50;2.15;;;;;;;17.25;48.33;102130.09;5339607;26;94711;-89
2024/04/14 01:43:28;;;;;;;9.30;2.03;;;;;;;17.23;48.34;102136.25;5337355;26;97805;-89
2024/04/14 01:45:53;;;;;;;11.02;1.98;;;;;;;17.19;48.31;102135.34;5307764;26;98782;-90
2024/04/14 01:48:19;;;;;;;11.50;2.75;;;;;;;17.15;48.15;102127.38;5306978;26;94922;-89
2024/04/14 01:50:45;;;;;;;5.18;1.85;;;;;;;17.06;47.29;102130.88;5336059;26;95006;-90
2024/04/14 01:53:10;;;;;;;4.57;1.30;;;;;;;16.98;46.74;102130.81;5337777;26;97776;-90
2024/04/14 01:55:36;;;;;;;7.40;1.92;;;;;;;16.92;46.48;102141.31;5308016;26;96696;-90
2024/04/14 01:58:01;;;;;;;6.25;1.30;;;;;;;16.85;46.21;102143.03;5337563;26;94788;-91
2024/04/14 02:00:27;;;;;;;9.05;1.83;;;;;;;16.77;46.22;102126.22;5337734;26;94965;-89
2024/04/14 02:02:54;;;;;;;7.95;1.30;;;;;;;16.70;45.84;102143.78;5338616;26;95578;-90
2024/04/14 02:05:20;;;;;;;7.55;2.15;;;;;;;16.64;45.91;102140.19;5337159;26;99167;-89
2024/04/14 02:07:45;;;;;;;6.82;1.88;;;;;;;16.59;46.03;102147.19;5337396;26;94755;-89
2024/04/14 02:10:11;;;;;;;8.60;1.35;;;;;;;16.53;45.82;102148.88;5309319;26;94769;-90
2024/04/14 02:12:39;;;;;;;7.32;1.85;;;;;;;16.47;45.64;102158.47;5307390;26;97884;-89
2024/04/14 02:15:05;;;;;;;7.85;1.38;;;;;;;16.40;45.77;102159.28;5307568;26;98408;-89
2024/04/14 02:17:30;;;;;;;9.10;1.98;;;;;;;16.33;45.71;102153.97;5289298;26;94892;-89
2024/04/14 02:19:56;;;;;;;6.65;1.40;;;;;;;16.30;45.92;102174.13;5302418;26;94940;-89
2024/04/14 02:22:21;;;;;;;7.25;1.65;;;;;;;16.25;46.04;102175.84;5301906;26;95981;-89
2024/04/14 02:24:47;;;;;;;5.18;1.50;;;;;;;16.21;46.06;102167.03;5310020;26;97480;-86
2024/04/14 02:27:12;;;;;;;4.85;1.08;;;;;;;16.17;45.79;102166.09;5305819;26;97890;-86
2024/04/14 02:29:38;;;;;;;7.65;1.90;;;;;;;16.14;45.77;102171.31;5337616;26;94875;-86
2024/04/14 02:32:03;;;;;;;7.43;1.50;;;;;;;16.10;46.16;102172.16;5303185;26;98433;-86
2024/04/14 02:34:29;;;;;;;7.20;1.30;;;;;;;16.09;45.97;102173.03;5305530;26;95790;-85
2024/04/14 02:36:54;;;;;;;7.55;1.38;;;;;;;16.09;46.11;102178.28;5306584;26;94820;-86
2024/04/14 02:39:21;;;;;;;7.80;1.50;;;;;;;16.09;46.15;102183.56;5335236;26;94851;-86
2024/04/14 02:41:46;;;;;;;6.88;1.70;;;;;;;16.08;46.37;102181.81;5319916;26;97905;-85
2024/04/14 02:44:12;;;;;;;4.28;1.20;;;;;;;16.08;46.46;102187.06;5333312;26;95508;-86
2024/04/14 02:46:38;;;;;;;8.32;2.10;;;;;;;16.09;46.66;102178.28;5334494;26;94788;-86
2024/04/14 02:49:05;;;;;;;7.20;1.70;;;;;;;16.10;46.18;102182.69;5304956;26;95046;-86
2024/04/14 02:51:30;;;;;;;7.90;2.28;;;;;;;16.10;46.33;102184.47;5305042;26;98812;-85
2024/04/14 02:53:55;;;;;;;9.68;2.17;;;;;;;16.06;46.38;102178.28;5336140;26;95471;-85
2024/04/14 02:56:21;;;;;;;9.60;1.92;;;;;;;16.04;46.28;102182.63;5334323;26;94871;-86
2024/04/14 02:58:46;;;;;;;7.53;1.75;;;;;;;16.02;46.52;102183.47;5314120;26;94817;-86
2024/04/14 03:01:14;;;;;;;7.50;2.45;;;;;;;15.99;46.32;102193.09;5322738;26;98699;-86
2024/04/14 03:03:40;;;;;;;9.18;1.92;;;;;;;15.95;46.63;102191.31;5326453;26;96637;-85
2024/04/14 03:06:06;;;;;;;10.15;2.17;;;;;;;15.90;46.68;102185.13;5297528;26;94769;-85
2024/04/14 03:08:31;;;;;;;6.40;1.58;;;;;;;15.89;46.67;102187.72;5295124;26;94899;-86
2024/04/14 03:10:58;;;;;;;13.05;1.63;;;;;;;15.86;46.95;102185.03;5302953;26;98274;-86
2024/04/14 03:13:24;;;;;;;12.65;1.90;;;;;;;15.85;47.17;102193.81;5304250;26;95629;-86
2024/04/14 03:15:50;;;;;;;10.40;2.38;;;;;;;15.80;47.28;102194.63;5304138;26;94984;-85
2024/04/14 03:18:16;;;;;;;7.53;1.90;;;;;;;15.77;47.16;102191.97;5302363;26;94911;-85
2024/04/14 03:20:41;;;;;;;9.05;1.90;;;;;;;15.75;47.32;102203.31;5337063;26;95639;-85
2024/04/14 03:23:06;;;;;;;7.75;1.60;;;;;;;15.72;47.62;102203.25;5286745;26;95913;-86
2024/04/14 03:25:32;;;;;;;17.42;1.88;;;;;;;15.70;47.49;102205.84;5329382;26;94858;-85
2024/04/14 03:27:57;;;;;;;6.78;2.10;;;;;;;15.67;47.70;102197.94;5314885;26;94754;-85
2024/04/14 03:30:23;;;;;;;8.63;1.73;;;;;;;15.68;47.92;102204.06;5334616;26;95576;-85
2024/04/14 03:32:48;;;;;;;12.48;2.00;;;;;;;15.66;47.81;102203.19;5306156;26;98293;-85
2024/04/14 03:35:14;;;;;;;9.30;2.20;;;;;;;15.63;47.76;102203.13;5285977;26;94887;-86
2024/04/14 03:37:40;;;;;;;9.18;2.55;;;;;;;15.60;48.01;102194.34;5301376;26;94955;-86
2024/04/14 03:40:06;;;;;;;8.30;1.73;;;;;;;15.58;47.93;102197.81;5325520;26;95902;-85
2024/04/14 03:42:34;;;;;;;12.23;1.92;;;;;;;15.54;47.92;102196.00;5329602;26;95702;-86
2024/04/14 03:45:05;;;;;;;10.43;1.70;;;;;;;15.49;47.87;102203.84;5313107;26;94926;-85
2024/04/14 03:47:32;;;;;;;13.68;2.50;;;;;;;15.46;48.01;102211.69;5307003;26;94941;-85
2024/04/14 03:49:57;;;;;;;9.70;1.75;;;;;;;15.44;48.15;102208.16;5324620;26;95899;-85
2024/04/14 03:52:24;;;;;;;9.45;2.10;;;;;;;15.43;48.21;102216.88;5306679;26;96642;-86
2024/04/14 03:54:50;;;;;;;8.00;1.92;;;;;;;15.40;48.54;102223.00;5302125;26;94873;-85
2024/04/14 03:57:15;;;;;;;10.65;1.90;;;;;;;15.39;48.30;102210.69;5335025;26;95094;-86
2024/04/14 03:59:44;;;;;;;8.30;1.52;;;;;;;15.37;48.39;102219.44;5334758;26;98727;-85
2024/04/14 04:02:10;;;;;;;12.13;2.42;;;;;;;15.33;48.51;102221.16;5306014;26;95597;-85
2024/04/14 04:04:35;;;;;;;8.35;1.77;;;;;;;15.29;48.58;102219.31;5304767;26;94917;-85
2024/04/14 04:07:01;;;;;;;13.35;2.67;;;;;;;15.27;48.48;102222.78;5315393;26;94882;-85
2024/04/14 04:09:26;;;;;;;10.90;1.73;;;;;;;15.23;48.82;102220.09;5333794;26;95598;-86
2024/04/14 04:11:52;;;;;;;7.22;1.67;;;;;;;15.24;48.86;102234.16;5306025;26;94759;-86
2024/04/14 04:14:18;;;;;;;12.02;2.00;;;;;;;15.22;48.73;102233.22;5305583;26;94814;-86
2024/04/14 04:16:45;;;;;;;12.57;2.13;;;;;;;15.21;48.85;102231.47;5291933;26;94971;-86
2024/04/14 04:19:12;;;;;;;13.07;2.30;;;;;;;15.18;48.76;102227.03;5334919;26;98891;-85
2024/04/14 04:21:37;;;;;;;12.02;2.28;;;;;;;15.20;48.80;102229.69;5306121;26;96950;-85
2024/04/14 04:24:03;;;;;;;9.15;1.75;;;;;;;15.19;48.74;102231.44;5304376;26;94820;-85
2024/04/14 04:26:28;;;;;;;11.20;1.65;;;;;;;15.18;48.60;102232.28;5336500;26;94872;-85
2024/04/14 04:28:54;;;;;;;11.02;2.10;;;;;;;15.18;48.57;102231.41;5304389;26;98671;-85
2024/04/14 04:31:19;;;;;;;10.45;1.73;;;;;;;15.17;48.51;102227.91;5295376;26;98611;-84
2024/04/14 04:33:44;;;;;;;11.85;2.17;;;;;;;15.18;48.76;102236.66;5305712;26;94963;-85
2024/04/14 04:36:13;;;;;;;8.52;1.63;;;;;;;15.19;48.94;102243.72;5296579;26;94966;-85
2024/04/14 04:38:44;;;;;;;12.10;2.13;;;;;;;15.21;49.22;102242.84;5302485;26;95621;-85
2024/04/14 04:41:10;;;;;;;5.18;1.30;;;;;;;15.24;49.02;102244.66;5329341;26;97694;-85
2024/04/14 04:43:38;;;;;;;10.40;2.17;;;;;;;15.26;49.00;102252.56;5329203;26;94880;-85
2024/04/14 04:46:03;;;;;;;12.80;1.92;;;;;;;15.25;48.61;102250.81;5305805;26;95166;-85
2024/04/14 04:48:29;;;;;;;11.48;1.60;;;;;;;15.22;48.26;102249.91;5335135;26;95519;-85
2024/04/14 04:50:55;;;;;;;9.05;2.08;;;;;;;15.20;48.45;102248.09;5337165;26;95891;-85
2024/04/14 04:53:21;;;;;;;13.25;1.92;;;;;;;15.18;48.61;102247.19;5333992;26;95033;-85
2024/04/14 04:55:46;;;;;;;12.85;2.63;;;;;;;15.17;48.79;102246.31;5300403;26;94888;-85
2024/04/14 04:58:13;;;;;;;10.45;2.28;;;;;;;15.18;48.50;102255.06;5329150;26;95940;-85
2024/04/14 05:00:39;;;;;;;8.00;1.67;;;;;;;15.20;48.57;102251.63;5301686;26;97729;-85
2024/04/14 05:03:05;;;;;;;13.75;1.83;;;;;;;15.21;48.51;102252.50;5299357;26;95081;-86
2024/04/14 05:05:30;;;;;;;10.80;1.83;;;;;;;15.21;48.17;102268.25;5300285;26;95123;-85
2024/04/14 05:07:56;;;;;;;8.32;2.03;;;;;;;15.21;47.88;102270.88;5301220;26;97737;-85
2024/04/14 05:10:22;;;;;;;11.15;1.70;;;;;;;15.20;48.13;102274.38;5276000;26;96026;-85
2024/04/14 05:12:49;;;;;;;10.45;1.75;;;;;;;15.21;48.06;102268.25;5327192;26;94866;-85
2024/04/14 05:15:15;;;;;;;8.98;2.03;;;;;;;15.23;48.27;102262.16;5296168;26;94898;-86
2024/04/14 05:17:40;;;;;;;10.73;2.00;;;;;;;15.25;48.02;102259.56;5324375;26;95576;-85
2024/04/14 05:20:06;;;;;;;7.78;1.55;;;;;;;15.26;47.84;102263.06;5294000;26;97787;-85
2024/04/14 05:22:32;;;;;;;12.35;2.25;;;;;;;15.27;47.58;102272.72;5332146;26;94880;-85
2024/04/14 05:24:57;;;;;;;11.60;1.70;;;;;;;15.27;47.81;102278.00;5331046;26;94904;-85
2024/04/14 05:27:22;;;;;;;10.07;1.60;;;;;;;15.28;47.91;102272.75;5301772;26;95540;-85
2024/04/14 05:29:48;;;;;;;9.52;2.35;;;;;;;15.29;47.68;102279.75;5324796;26;95358;-85
2024/04/14 05:32:15;;;;;;;11.13;2.55;;;;;;;15.29;47.91;102277.13;5277689;26;94841;-85
2024/04/14 05:34:41;;;;;;;7.57;1.52;;;;;;;15.31;47.82;102275.44;5326131;26;95010;-85
2024/04/14 05:37:06;;;;;;;12.00;1.73;;;;;;;15.33;47.84;102276.34;5330942;26;95837;-85
2024/04/14 05:39:32;;;;;;;7.75;1.90;;;;;;;15.35;47.88;102285.13;5334383;26;95414;-85
2024/04/14 05:41:57;;;;;;;9.18;1.45;;;;;;;15.36;47.61;102292.16;5301660;26;94940;-85
2024/04/14 05:44:23;;;;;;;9.57;2.25;;;;;;;15.36;47.53;102286.88;5336797;26;94779;-85
2024/04/14 05:46:48;;;;;;;12.43;2.58;;;;;;;15.34;47.63;102296.50;5303804;26;98656;-85
2024/04/14 05:49:14;;;;;;;10.15;1.73;;;;;;;15.35;47.46;102300.91;5293803;26;97755;-85
2024/04/14 05:51:39;;;;;;;6.47;1.60;;;;;;;15.36;47.58;102299.16;5301264;26;94767;-85
2024/04/14 05:54:05;;;;;;;12.13;1.73;;;;;;;15.39;47.84;102301.84;5330250;26;95080;-85
2024/04/14 05:56:30;;;;;;;11.32;1.85;;;;;;;15.39;47.71;102307.09;5322457;26;96616;-85
2024/04/14 05:58:56;;;;;;;9.38;1.70;;;;;;;15.41;47.86;102300.13;5330968;26;97786;-85
2024/04/14 06:01:21;;;;;;;14.02;2.20;;;;;;;15.46;47.91;102308.09;5300292;26;94853;-85
2024/04/14 06:03:46;;;;;;;10.93;2.35;;;;;;;15.47;47.55;102302.88;5319995;26;94832;-85
2024/04/14 06:06:12;;;;;;;11.60;1.40;;;;;;;15.48;47.09;102309.00;5306249;26;97633;-86
2024/04/14 06:08:37;;;;;;;9.82;1.58;;;;;;;15.46;47.26;102303.72;5305914;26;97521;-85
2024/04/14 06:11:03;;;;;;;10.23;2.20;;;;;;;15.48;47.52;102296.72;5288855;26;94854;-84
2024/04/14 06:13:29;;;;;;;6.95;1.30;;;;;;;15.56;47.45;102302.09;5329740;26;94948;-85
2024/04/14 06:15:55;;;;;;;8.80;2.10;;;;;;;15.60;47.23;102309.19;5300215;26;96091;-86
2024/04/14 06:18:20;;;;;;;8.60;2.38;;;;;;;15.61;46.88;102306.59;5292876;26;97699;-85
2024/04/14 06:20:46;;;;;;;8.95;1.92;;;;;;;15.63;46.98;102305.72;5334959;26;94827;-85
2024/04/14 06:23:12;;;;;;;9.73;1.60;;;;;;;15.66;47.19;102313.66;5305714;26;94951;-85
2024/04/14 06:25:38;;;;;;;10.40;1.67;;;;;;;15.66;46.97;102317.16;5333694;26;98696;-86
2024/04/14 06:28:03;;;;;;;11.05;2.60;;;;;;;15.66;46.75;102317.16;5280161;26;95978;-86
2024/04/14 06:30:29;;;;;;;9.50;2.40;;;;;;;15.68;46.75;102319.81;5332385;26;94776;-85
2024/04/14 06:32:54;;;;;;;5.68;1.17;;;;;;;15.68;46.69;102311.94;5335580;26;94954;-85
2024/04/14 06:35:20;;;;;;;11.90;2.10;;;;;;;15.67;46.68;102321.56;5334190;26;97934;-85
2024/04/14 06:37:45;;;;;;;12.93;2.08;;;;;;;15.67;46.80;102332.09;5335294;26;95535;-86
2024/04/14 06:40:10;;;;;;;9.27;1.60;;;;;;;15.66;46.89;102327.69;5334029;26;94945;-85
2024/04/14 06:42:38;;;;;;;9.63;1.70;;;;;;;15.66;46.98;102332.94;5335574;26;95043;-86
2024/04/14 06:45:04;;;;;;;10.30;1.75;;;;;;;15.68;47.01;102335.59;5332894;26;96068;-86
2024/04/14 06:47:29;;;;;;;7.43;1.92;;;;;;;15.69;46.89;102333.00;5328930;26;95505;-85
2024/04/14 06:49:54;;;;;;;9.65;1.42;;;;;;;15.73;47.13;102331.28;5290561;26;94956;-85
2024/04/14 06:52:20;;;;;;;9.93;1.55;;;;;;;15.76;46.96;102334.88;5334815;26;95046;-86
2024/04/14 06:54:45;;;;;;;11.52;2.13;;;;;;;15.78;46.79;102337.53;5308030;26;99625;-86
2024/04/14 06:57:11;;;;;;;12.15;2.25;;;;;;;15.78;47.10;102333.16;5337973;26;95803;-85
2024/04/14 06:59:36;;;;;;;11.35;2.33;;;;;;;15.83;47.31;102348.13;5306797;26;94895;-86
2024/04/14 07:02:01;;;;;;;10.45;1.70;;;;;;;15.87;46.89;102342.06;5334416;26;95014;-86
2024/04/14 07:04:27;;;;;;;12.63;2.15;;;;;;;15.90;46.85;102343.00;5321271;26;95794;-86
2024/04/14 07:06:52;;;;;;;10.20;1.35;;;;;;;15.96;47.07;102344.81;5330179;26;95608;-86
2024/04/14 07:09:18;;;;;;;9.48;1.70;;;;;;;16.00;46.75;102346.63;5338536;26;94720;-85
2024/04/14 07:11:43;;;;;;;12.93;1.98;;;;;;;16.05;46.88;102354.59;5338109;26;94992;-85
2024/04/14 07:14:09;;;;;;;11.60;1.38;;;;;;;16.08;46.06;102351.97;5306494;26;94896;-85
2024/04/14 07:16:35;;;;;;;7.82;1.40;;;;;;;16.07;46.13;102348.47;5334715;26;95489;-85
2024/04/14 07:19:00;;;;;;;10.70;1.80;;;;;;;16.09;46.20;102351.13;5323772;26;94837;-84
2024/04/14 07:21:26;;;;;;;6.60;1.88;;;;;;;16.15;46.61;102344.22;5329563;26;95196;-87
2024/04/14 07:23:51;;;;;;;11.88;2.10;;;;;;;16.27;46.55;102346.09;5345465;26;95476;-87
2024/04/14 07:26:16;;;;;;;9.85;2.15;;;;;;;16.40;46.45;102341.91;5289096;26;98733;-87
2024/04/14 07:28:42;;;;;;;12.80;1.40;;;;;;;16.53;46.51;102338.53;5294988;26;94845;-85
2024/04/14 07:31:08;;;;;;;11.48;1.85;;;;;;;16.64;46.58;102338.66;5331370;26;94819;-87
2024/04/14 07:33:35;;;;;;;7.30;1.63;;;;;;;16.72;45.67;102336.13;5329836;26;95391;-87
2024/04/14 07:36:00;;;;;;;12.18;1.73;;;;;;;16.77;45.73;102339.66;5305124;26;95854;-81
2024/04/14 07:38:26;;;;;;;9.55;1.88;;;;;;;16.81;45.20;102340.56;5331113;26;94866;-81
2024/04/14 07:40:51;;;;;;;5.97;1.40;;;;;;;16.87;45.85;102345.97;5285923;26;95007;-81
2024/04/14 07:43:16;;;;;;;9.93;2.20;;;;;;;17.00;45.84;102342.56;5335943;26;95873;-81
2024/04/14 07:45:42;;;;;;;9.85;2.63;;;;;;;17.19;46.07;102342.75;5331985;26;95499;-82
2024/04/14 07:48:07;;;;;;;10.35;1.65;;;;;;;17.36;45.99;102342.88;5328951;26;94903;-81
2024/04/14 07:50:35;;;;;;;7.80;1.55;;;;;;;17.49;45.15;102350.91;5328848;26;94947;-82
2024/04/14 07:53:00;;;;;;;8.65;2.35;;;;;;;17.50;45.07;102351.78;5327344;26;98217;-82
2024/04/14 07:55:26;;;;;;;11.93;1.88;;;;;;;17.50;44.89;102355.34;5292084;26;98666;-83
2024/04/14 07:57:51;;;;;;;9.57;2.15;;;;;;;17.53;44.78;102367.66;5323151;26;94902;-81
2024/04/14 08:00:17;;;;;;;8.13;1.60;;;;;;;17.55;44.84;102370.31;5298639;26;94995;-83
2024/04/14 08:02:43;;;;;;;8.88;1.80;;;;;;;17.51;44.80;102375.56;5300646;26;98389;-82
2024/04/14 08:05:08;;;;;;;10.20;1.73;;;;;;;17.48;44.80;102370.25;5328642;26;98827;-82
2024/04/14 08:07:33;;;;;;;10.02;2.25;;;;;;;17.46;44.61;102382.53;5305320;26;94872;-82
2024/04/14 08:09:59;;;;;;;8.15;1.88;;;;;;;17.40;44.71;102374.59;5329060;26;94979;-82
2024/04/14 08:12:26;;;;;;;9.23;1.52;;;;;;;17.35;44.89;102370.16;5329791;26;96524;-82
2024/04/14 08:14:52;;;;;;;9.82;2.25;;;;;;;17.35;44.99;102380.69;5333348;26;95545;-82
2024/04/14 08:17:17;;;;;;;6.32;1.25;;;;;;;17.33;44.19;102383.31;5298706;26;95041;-82
2024/04/14 08:19:43;;;;;;;11.68;1.98;;;;;;;17.28;44.15;102380.63;5324005;26;95009;-82
2024/04/14 08:22:08;;;;;;;10.10;1.80;;;;;;;17.27;44.03;102391.16;5299535;26;98701;-82
2024/04/14 08:24:34;;;;;;;8.60;1.60;;;;;;;17.31;44.64;102393.84;5300850;26;95573;-82
2024/04/14 08:26:59;;;;;;;9.20;2.05;;;;;;;17.34;43.75;102387.72;5302881;26;94806;-81
2024/04/14 08:29:25;;;;;;;8.75;1.58;;;;;;;17.36;43.98;102386.00;5331852;26;95010;-81
2024/04/14 08:31:51;;;;;;;9.05;1.90;;;;;;;17.45;44.45;102388.72;5335540;26;95815;-81
2024/04/14 08:34:17;;;;;;;6.72;1.20;;;;;;;17.58;43.51;102380.91;5327910;26;98268;-81
2024/04/14 08:36:43;;;;;;;6.45;2.33;;;;;;;17.61;43.63;102379.16;5328441;26;94991;-81
2024/04/14 08:39:08;;;;;;;8.30;1.58;;;;;;;17.66;43.33;102379.19;5306402;26;95166;-80
2024/04/14 08:41:39;;;;;;;7.88;1.30;;;;;;;17.74;43.62;102381.91;5330166;26;98457;-85
2024/04/14 08:44:05;;;;;;;7.40;2.05;;;;;;;17.87;43.43;102379.38;5293772;26;98647;-82
2024/04/14 08:46:32;;;;;;;9.77;2.03;;;;;;;17.99;43.21;102383.84;5332611;26;95453;-83
2024/04/14 08:48:58;;;;;;;10.07;1.85;;;;;;;18.11;42.58;102375.13;5331856;26;95070;-83
2024/04/14 08:51:25;;;;;;;6.75;1.83;;;;;;;18.18;42.06;102374.28;5333966;26;97799;-83
2024/04/14 08:53:53;;;;;;;6.03;1.13;;;;;;;18.24;41.50;102374.31;5332455;26;97809;-83
2024/04/14 08:56:19;;;;;;;7.47;1.50;;;;;;;18.35;41.58;102373.47;5321517;26;94820;-83
2024/04/14 08:58:46;;;;;;;7.05;1.83;;;;;;;18.50;41.25;102370.00;5321402;26;95073;-83
2024/04/14 09:01:14;;;;;;;7.50;1.65;;;;;;;18.69;40.94;102377.13;5319448;26;97910;-95
2024/04/14 09:03:39;;;;;;;6.35;1.15;;;;;;;18.87;40.24;102381.63;5307765;26;94795;-86
2024/04/14 09:06:05;;;;;;;4.25;1.35;;;;;;;19.09;40.62;102376.38;5344014;26;94784;-86
2024/04/14 09:08:32;;;;;;;5.38;1.30;;;;;;;19.40;40.10;102378.16;5302483;26;95118;-86
2024/04/14 09:10:57;;;;;;;3.80;1.00;;;;;;;19.75;39.02;102379.97;5324533;26;95566;-86
2024/04/14 09:13:27;;;;;;;3.72;1.13;;;;;;;20.01;38.79;102386.97;5311041;26;96514;-82
2024/04/14 09:15:56;;;;;;;5.97;1.50;;;;;;;20.18;38.33;102379.00;5295816;26;95037;-87
2024/04/14 09:18:21;;;;;;;;;;;;;;;20.31;40.29;102375.41;5297435;26;95015;-88
2024/04/14 09:20:47;;;;;;;5.57;1.40;;;;;;;20.60;39.06;102377.03;5296001;26;98375;-87
2024/04/14 09:23:12;;;;;;;5.28;1.02;;;;;;;20.73;37.75;102383.22;5335622;26;95521;-89
2024/04/14 09:25:37;;;;;;;7.10;1.27;;;;;;;20.77;37.32;102381.44;5321241;26;94849;-88
2024/04/14 09:28:10;;;;;;;4.88;0.90;;;;;;;20.79;36.83;102384.94;5292347;26;94789;-86
2024/04/14 09:30:38;;;;;;;6.13;1.00;;;;;;;20.84;36.79;102389.31;5333238;26;95554;-86
2024/04/14 09:33:04;;;;;;;5.45;1.70;;;;;;;20.86;36.22;102391.97;5299889;26;98709;-86
2024/04/14 09:35:30;;;;;;;5.70;1.55;;;;;;;20.95;36.72;102393.69;5305246;26;94798;-91
2024/04/14 09:37:56;;;;;;;4.47;0.93;;;;;;;21.19;36.39;102395.28;5299413;26;95066;-87
2024/04/14 09:40:25;;;;;;;5.03;1.77;;;;;;;21.38;36.21;102396.91;5317577;26;95985;-85
2024/04/14 09:42:57;;;;;;;4.63;1.00;;;;;;;21.55;35.52;102387.97;5307908;26;98548;-87
2024/04/14 09:45:24;;;;;;;6.03;1.88;;;;;;;21.57;34.66;102392.38;5308173;26;94810;-87
2024/04/14 09:47:52;;;;;;;5.30;1.38;;;;;;;21.51;34.36;102395.06;5338625;26;95038;-87
2024/04/14 09:50:20;;;;;;;4.15;1.17;;;;;;;21.37;33.39;102389.88;5337230;26;98546;-89
2024/04/14 09:52:48;;;;;;;6.40;1.67;;;;;;;21.15;34.03;102397.09;5309464;26;95633;-91
2024/04/14 09:55:15;;;;;;;5.18;1.13;;;;;;;20.94;33.69;102403.41;5332368;26;94780;-91
2024/04/14 09:57:41;;;;;;;6.38;1.80;;;;;;;20.72;33.35;102403.53;5275861;26;94894;-90
2024/04/14 10:00:08;;;;;;;4.57;1.23;;;;;;;20.50;33.42;102400.06;5293711;26;97260;-84
2024/04/14 10:02:41;;;;;;;24.38;8.00;;;;;;;20.33;34.33;102410.72;5304508;26;98825;-85
2024/04/14 10:05:09;;;;;;;5.40;1.10;;;;;;;20.28;33.97;102414.28;5302621;26;94899;-90
2024/04/14 10:07:36;;;;;;;17.50;4.20;;;;;;;20.16;34.35;102420.50;5323564;26;94886;-87
2024/04/14 10:10:05;;;;;;;6.70;1.40;;;;;;;20.07;34.25;102412.56;5308720;26;98420;-90
2024/04/14 10:12:32;;;;;;;5.40;1.58;;;;;;;20.00;34.12;102413.44;5338859;26;96594;-88
2024/04/14 10:15:03;;;;;;;8.73;1.10;;;;;;;19.96;34.23;102405.53;5309741;26;94754;-89
2024/04/14 10:17:29;;;;;;;6.50;1.08;;;;;;;19.93;34.58;102408.19;5339403;26;94819;-89
2024/04/14 10:20:00;;;;;;;5.45;1.20;;;;;;;19.95;34.69;102409.06;5338218;26;96970;-90
2024/04/14 10:22:35;;;;;;;7.38;3.80;;;;;;;20.09;35.04;102402.81;5308946;26;98829;-89
2024/04/14 10:25:01;;;;;;;;;;;;;;;20.23;35.96;102406.34;5341072;26;94635;-90
2024/04/14 10:27:30;;;;;;;5.63;1.50;;;;;;;20.30;34.37;102409.84;5307444;26;94926;-89
2024/04/14 10:29:57;;;;;;;5.78;1.30;;;;;;;20.24;34.06;102407.22;5338816;26;98646;-90
2024/04/14 10:32:24;;;;;;;8.52;1.40;;;;;;;20.13;33.84;102409.91;5303758;26;97426;-90
2024/04/14 10:34:49;;;;;;;5.85;1.60;;;;;;;20.09;34.33;102405.47;5305404;26;94766;-89
2024/04/14 10:37:28;;;;;;;7.30;1.40;;;;;;;20.11;34.36;102403.72;5330175;26;95002;-89
2024/04/14 10:39:55;;;;;;;4.93;0.90;;;;;;;20.18;34.22;102402.84;5308776;26;97578;-90
2024/04/14 10:42:24;;;;;;;37.80;12.00;;;;;;;20.26;34.14;102398.38;5309148;26;97395;-89
2024/04/14 10:44:49;;;;;;;12.32;4.32;;;;;;;20.34;34.32;102393.94;5339138;26;94768;-89
2024/04/14 10:47:17;;;;;;;69.85;23.27;;;;;;;20.44;34.63;102388.59;5308987;26;95063;-88
2024/04/14 10:49:52;;;;;;;6.15;2.35;;;;;;;20.54;34.59;102388.56;5318935;26;95685;-88
2024/04/14 10:52:20;;;;;;;5.55;1.10;;;;;;;20.68;34.14;102374.41;5303361;26;98487;-93
2024/04/14 10:54:46;;;;;;;6.22;1.33;;;;;;;20.69;34.12;102384.97;5327611;26;95456;-84
2024/04/14 10:57:12;;;;;;;7.13;1.23;;;;;;;20.66;33.40;102381.47;5338448;26;94674;-90
2024/04/14 10:59:41;;;;;;;7.25;1.38;;;;;;;20.56;33.14;102385.03;5324142;26;98465;-94
2024/04/14 11:02:07;;;;;;;4.80;0.93;;;;;;;20.47;33.12;102380.66;5343469;26;95992;-89
2024/04/14 11:04:33;;;;;;;7.20;1.95;;;;;;;20.40;33.16;102379.78;5321426;26;94856;-86
2024/04/14 11:07:01;;;;;;;6.85;1.45;;;;;;;20.36;32.78;102383.34;5334598;26;95087;-88
2024/04/14 11:09:29;;;;;;;4.28;1.23;;;;;;;20.33;33.06;102370.09;5318335;26;94826;-91
2024/04/14 11:11:55;;;;;;;6.25;1.70;;;;;;;20.39;33.42;102377.13;5325522;26;98510;-91
2024/04/14 11:14:22;;;;;;;6.22;1.67;;;;;;;20.37;32.97;102376.25;5336779;26;95051;-89
2024/04/14 11:16:48;;;;;;;3.42;1.08;;;;;;;20.29;32.54;102368.34;5335593;26;95030;-88